Time;durP1;ratioP1;P1;durP2;ratioP2;P2;SDS_P1;SDS_P2;PMS_P1;PMS_P2;Temp;Humidity;BMP_temperature;BMP_pressure;BME280_temperature;BME280_humidity;BME280_pressure;Samples;Min_cycle;Max_cycle;Signal;HPM_P1;HPM_P2
2023/06/17 00:01:35;;;;;;;13.27;9.52;;;18.10;98.60;;;;;;5005337;28;20094;-90
2023/06/17 00:04:02;;;;;;;15.65;10.75;;;18.20;98.60;;;;;;5006654;28;20504;-91
2023/06/17 00:06:27;;;;;;;12.75;10.23;;;18.10;98.80;;;;;;5026045;28;20101;-91
2023/06/17 00:08:54;;;;;;;15.25;10.63;;;18.10;98.80;;;;;;4996711;28;20062;-91
2023/06/17 00:11:20;;;;;;;12.40;10.13;;;18.10;98.90;;;;;;4993909;28;20125;-91
2023/06/17 00:13:46;;;;;;;13.80;10.98;;;18.10;98.90;;;;;;5002246;28;20034;-90
2023/06/17 00:16:12;;;;;;;11.13;8.02;;;18.10;99.00;;;;;;5028422;28;20041;-91
2023/06/17 00:18:39;;;;;;;13.52;9.85;;;18.10;99.10;;;;;;5026409;28;20125;-90
2023/06/17 00:21:05;;;;;;;15.32;11.52;;;18.10;98.80;;;;;;5008586;28;20095;-91
2023/06/17 00:23:31;;;;;;;15.05;10.98;;;18.10;99.00;;;;;;5023247;28;20034;-89
2023/06/17 00:25:57;;;;;;;19.27;11.52;;;18.10;99.10;;;;;;4993776;28;20095;-90
2023/06/17 00:28:23;;;;;;;15.95;11.93;;;18.10;99.10;;;;;;5019207;28;20037;-91
2023/06/17 00:30:48;;;;;;;14.13;10.27;;;18.10;99.50;;;;;;5007431;28;20114;-91
2023/06/17 00:33:15;;;;;;;20.38;12.77;;;18.10;99.40;;;;;;5000424;28;20053;-90
2023/06/17 00:35:40;;;;;;;15.18;10.88;;;18.10;99.90;;;;;;5019635;28;20031;-92
2023/06/17 00:38:06;;;;;;;15.13;12.23;;;18.50;99.70;;;;;;4997387;28;20095;-90
2023/06/17 00:40:32;;;;;;;17.20;10.90;;;18.10;99.90;;;;;;5016764;28;20437;-91
2023/06/17 00:42:58;;;;;;;18.38;11.27;;;18.10;99.90;;;;;;5022870;28;20116;-90
2023/06/17 00:45:24;;;;;;;20.10;11.02;;;18.10;99.90;;;;;;4997026;28;20056;-91
2023/06/17 00:47:50;;;;;;;16.85;11.77;;;18.10;99.90;;;;;;4988307;28;20076;-91
2023/06/17 00:50:16;;;;;;;21.73;13.32;;;18.10;99.90;;;;;;5006374;28;20063;-91
2023/06/17 00:52:45;;;;;;;21.85;13.40;;;18.10;99.90;;;;;;4989180;28;20037;-91
2023/06/17 00:55:12;;;;;;;17.13;10.95;;;18.10;99.90;;;;;;5005750;28;20063;-90
2023/06/17 00:57:38;;;;;;;19.73;13.13;;;18.00;99.90;;;;;;4987657;28;20076;-90
2023/06/17 01:00:11;;;;;;;22.33;14.52;;;18.00;99.90;;;;;;5011637;28;20166;-90
2023/06/17 01:02:40;;;;;;;17.08;12.85;;;18.00;99.90;;;;;;4994656;28;20046;-90
2023/06/17 01:05:11;;;;;;;18.85;12.95;;;18.00;99.90;;;;;;4994169;28;20103;-90
2023/06/17 01:07:52;;;;;;;25.98;15.73;;;17.90;99.90;;;;;;4986401;28;20038;-91
2023/06/17 01:10:29;;;;;;;18.55;13.50;;;17.90;99.90;;;;;;4986832;28;20687;-90
2023/06/17 01:12:58;;;;;;;16.58;11.90;;;17.90;99.90;;;;;;4997977;28;20042;-91
2023/06/17 01:15:25;;;;;;;18.05;12.48;;;17.90;99.90;;;;;;4997183;28;20141;-91
2023/06/17 01:17:54;;;;;;;26.45;14.18;;;17.90;99.90;;;;;;5004986;28;20042;-91
2023/06/17 01:20:22;;;;;;;16.88;13.88;;;17.90;99.90;;;;;;5026618;28;20044;-91
2023/06/17 01:22:52;;;;;;;18.20;13.50;;;17.90;99.90;;;;;;4999196;28;20038;-91
2023/06/17 01:25:29;;;;;;;20.67;14.70;;;17.90;99.90;;;;;;4969585;28;20068;-90
2023/06/17 01:28:10;;;;;;;20.95;12.60;;;17.90;99.90;;;;;;4985383;28;20044;-90
2023/06/17 01:30:36;;;;;;;18.75;13.23;;;17.90;99.90;;;;;;5017578;28;20033;-91
2023/06/17 01:33:02;;;;;;;20.48;14.57;;;17.90;99.90;;;;;;5007757;28;20101;-91
2023/06/17 01:35:32;;;;;;;23.88;12.57;;;17.80;99.90;;;;;;4990652;28;20041;-90
2023/06/17 01:38:09;;;;;;;18.50;13.80;;;17.80;99.90;;;;;;5003823;28;20038;-90
2023/06/17 01:40:38;;;;;;;20.70;14.75;;;17.80;99.90;;;;;;4983808;28;20042;-90
2023/06/17 01:43:05;;;;;;;21.67;15.48;;;17.80;99.90;;;;;;5017416;28;20037;-89
2023/06/17 01:45:32;;;;;;;21.27;14.70;;;17.80;99.90;;;;;;5003774;28;20138;-90
2023/06/17 01:47:58;;;;;;;21.10;15.38;;;17.80;99.90;;;;;;5004600;28;20053;-90
2023/06/17 01:50:24;;;;;;;21.88;14.45;;;17.80;99.90;;;;;;4984725;28;20054;-90
2023/06/17 01:52:50;;;;;;;20.00;15.27;;;17.80;99.90;;;;;;5002537;28;20034;-90
2023/06/17 01:55:17;;;;;;;18.63;14.63;;;17.80;99.90;;;;;;4992155;28;20068;-89
2023/06/17 01:57:43;;;;;;;20.92;15.25;;;17.90;99.90;;;;;;5000214;28;20040;-90
2023/06/17 02:00:12;;;;;;;25.92;16.02;;;17.70;99.90;;;;;;4993596;28;20098;-90
2023/06/17 02:02:43;;;;;;;23.55;15.40;;;17.70;99.90;;;;;;4992789;28;20405;-89
2023/06/17 02:05:09;;;;;;;21.73;16.20;;;17.70;99.90;;;;;;4983316;28;20033;-89
2023/06/17 02:07:34;;;;;;;20.92;15.98;;;17.60;99.90;;;;;;5021117;28;20046;-90
2023/06/17 02:10:03;;;;;;;18.55;14.60;;;17.60;99.90;;;;;;4983416;28;20389;-89
2023/06/17 02:12:29;;;;;;;21.95;14.95;;;17.60;99.90;;;;;;5005847;28;20044;-89
2023/06/17 02:14:55;;;;;;;24.38;17.90;;;17.60;99.90;;;;;;5011153;28;20045;-89
2023/06/17 02:17:23;;;;;;;23.90;17.15;;;17.60;99.90;;;;;;5014426;28;20057;-90
2023/06/17 02:19:49;;;;;;;24.08;16.38;;;17.60;99.90;;;;;;4998251;28;20390;-90
2023/06/17 02:22:15;;;;;;;20.48;16.23;;;17.60;99.90;;;;;;4991895;28;20034;-91
2023/06/17 02:24:42;;;;;;;22.67;17.13;;;17.70;99.90;;;;;;4985646;28;20039;-89
2023/06/17 02:27:08;;;;;;;19.63;14.57;;;17.60;99.90;;;;;;4996671;28;20061;-90
2023/06/17 02:29:34;;;;;;;24.20;18.05;;;17.50;99.90;;;;;;4999347;28;20049;-90
2023/06/17 02:32:00;;;;;;;19.23;14.65;;;17.50;99.90;;;;;;4983719;28;20042;-90
2023/06/17 02:34:27;;;;;;;20.90;16.65;;;18.00;99.90;;;;;;4982836;28;20132;-89
2023/06/17 02:36:56;;;;;;;21.45;15.02;;;17.60;99.90;;;;;;5024560;28;20116;-90
2023/06/17 02:39:22;;;;;;;23.63;15.65;;;17.60;99.90;;;;;;5016482;28;20084;-90
2023/06/17 02:41:48;;;;;;;18.98;15.23;;;17.60;99.90;;;;;;5001093;28;20041;-90
2023/06/17 02:44:13;;;;;;;23.23;15.52;;;17.60;99.90;;;;;;5022202;28;20080;-89
2023/06/17 02:46:39;;;;;;;20.38;16.50;;;17.60;99.90;;;;;;5016816;28;20065;-90
2023/06/17 02:49:05;;;;;;;24.63;15.90;;;17.50;99.90;;;;;;5020928;28;20413;-90
2023/06/17 02:51:32;;;;;;;21.83;16.40;;;17.50;99.90;;;;;;5001753;28;20049;-90
2023/06/17 02:53:57;;;;;;;20.52;16.17;;;17.50;99.90;;;;;;5015782;28;20472;-90
2023/06/17 02:56:23;;;;;;;23.33;15.90;;;17.60;99.90;;;;;;5020330;28;20072;-90
2023/06/17 02:58:50;;;;;;;23.30;17.45;;;17.60;99.90;;;;;;5004069;28;20069;-90
2023/06/17 03:01:16;;;;;;;26.35;17.70;;;17.60;99.90;;;;;;5001632;28;20045;-90
2023/06/17 03:03:43;;;;;;;20.38;15.98;;;17.50;99.90;;;;;;5011945;28;20144;-91
2023/06/17 03:06:09;;;;;;;24.25;16.05;;;17.50;99.90;;;;;;4985119;28;20358;-90
2023/06/17 03:08:40;;;;;;;21.08;14.43;;;17.50;99.90;;;;;;4991931;28;20046;-90
2023/06/17 03:11:06;;;;;;;22.50;16.02;;;17.50;99.90;;;;;;5000839;28;20413;-92
2023/06/17 03:13:32;;;;;;;19.50;13.50;;;17.50;99.90;;;;;;5019441;28;20397;-90
2023/06/17 03:16:01;;;;;;;20.83;15.90;;;17.50;99.90;;;;;;4998174;28;20038;-90
2023/06/17 03:18:26;;;;;;;20.70;17.27;;;17.40;99.90;;;;;;4999245;28;20067;-91
2023/06/17 03:20:55;;;;;;;24.50;15.32;;;17.40;99.90;;;;;;5004552;28;20097;-90
2023/06/17 03:23:22;;;;;;;14.38;11.98;;;17.40;99.90;;;;;;5001453;28;20048;-90
2023/06/17 03:25:49;;;;;;;21.98;16.17;;;17.40;99.90;;;;;;5016502;28;20053;-90
2023/06/17 03:28:15;;;;;;;25.90;15.02;;;17.50;99.90;;;;;;5024379;28;20045;-90
2023/06/17 03:30:41;;;;;;;22.65;17.33;;;17.50;99.90;;;;;;4989967;28;20060;-91
2023/06/17 03:33:09;;;;;;;22.00;15.60;;;17.40;99.90;;;;;;4989290;28;20041;-89
2023/06/17 03:35:37;;;;;;;20.48;14.85;;;17.40;99.90;;;;;;4985515;28;20095;-91
2023/06/17 03:38:03;;;;;;;23.17;16.13;;;17.40;99.90;;;;;;5020415;28;20041;-91
2023/06/17 03:40:29;;;;;;;17.52;13.50;;;18.00;99.90;;;;;;4994711;28;20034;-90
2023/06/17 03:42:55;;;;;;;21.60;15.90;;;17.50;99.90;;;;;;4988343;28;20100;-90
2023/06/17 03:45:21;;;;;;;23.42;17.33;;;17.50;99.90;;;;;;5016917;28;20117;-90
2023/06/17 03:47:47;;;;;;;21.25;13.65;;;17.50;99.90;;;;;;5023703;28;20132;-90
2023/06/17 03:50:13;;;;;;;19.45;14.65;;;17.40;99.90;;;;;;5014611;28;20085;-90
2023/06/17 03:52:39;;;;;;;21.65;16.23;;;17.50;99.90;;;;;;5012465;28;20082;-89
2023/06/17 03:55:05;;;;;;;22.33;15.00;;;17.50;99.90;;;;;;5025358;28;20080;-89
2023/06/17 03:57:31;;;;;;;18.15;14.32;;;17.50;99.90;;;;;;5001917;28;20091;-89
2023/06/17 03:59:57;;;;;;;19.95;14.35;;;17.50;99.90;;;;;;4999301;28;20046;-90
2023/06/17 04:02:23;;;;;;;21.10;14.70;;;17.50;99.90;;;;;;5023907;28;20548;-91
2023/06/17 04:04:52;;;;;;;24.25;17.17;;;17.40;99.90;;;;;;4994983;28;20041;-90
2023/06/17 04:07:19;;;;;;;22.63;16.58;;;17.50;99.90;;;;;;5017874;28;20053;-90
2023/06/17 04:09:45;;;;;;;22.73;16.83;;;17.50;99.90;;;;;;5008397;28;20054;-90
2023/06/17 04:12:11;;;;;;;22.85;15.65;;;17.50;99.90;;;;;;5003093;28;20117;-91
2023/06/17 04:14:37;;;;;;;22.65;15.45;;;17.50;99.90;;;;;;5007805;28;20073;-90
2023/06/17 04:17:03;;;;;;;20.40;14.68;;;17.50;99.90;;;;;;4987467;28;20637;-91
2023/06/17 04:19:31;;;;;;;23.70;16.83;;;17.50;99.90;;;;;;5005868;28;20042;-90
2023/06/17 04:21:57;;;;;;;20.42;14.57;;;17.40;99.90;;;;;;5004445;28;20064;-90
2023/06/17 04:24:23;;;;;;;20.10;15.65;;;17.40;99.90;;;;;;4981346;28;20077;-91
2023/06/17 04:26:52;;;;;;;23.67;15.82;;;17.40;99.90;;;;;;5024331;28;20038;-91
2023/06/17 04:29:18;;;;;;;22.15;15.35;;;17.40;99.90;;;;;;5015703;28;20058;-90
2023/06/17 04:31:46;;;;;;;23.77;16.92;;;17.40;99.90;;;;;;5000764;28;20054;-90
2023/06/17 04:34:21;;;;;;;17.70;13.13;;;17.40;99.90;;;;;;4994780;28;20545;-90
2023/06/17 04:36:56;;;;;;;18.17;15.18;;;17.40;99.90;;;;;;4995522;28;20050;-91
2023/06/17 04:39:23;;;;;;;19.98;15.15;;;17.40;99.90;;;;;;4989492;28;20570;-90
2023/06/17 04:41:50;;;;;;;20.95;15.93;;;17.30;99.90;;;;;;5001645;28;20092;-90
2023/06/17 04:44:16;;;;;;;20.40;16.25;;;17.30;99.90;;;;;;5029186;28;20179;-90
2023/06/17 04:46:43;;;;;;;19.52;15.40;;;17.40;99.90;;;;;;5003760;28;20084;-90
2023/06/17 04:49:09;;;;;;;16.00;13.13;;;17.30;99.90;;;;;;4987145;28;20038;-90
2023/06/17 04:51:38;;;;;;;18.15;14.98;;;17.20;99.90;;;;;;5027719;28;20063;-90
2023/06/17 04:54:07;;;;;;;21.08;14.68;;;17.30;99.90;;;;;;5005156;28;20805;-90
2023/06/17 04:56:33;;;;;;;19.90;16.33;;;17.30;99.90;;;;;;5020912;28;20041;-90
2023/06/17 04:58:59;;;;;;;19.90;15.43;;;17.30;99.90;;;;;;5006044;28;20049;-90
2023/06/17 05:01:25;;;;;;;22.88;15.38;;;17.30;99.90;;;;;;4990048;28;20124;-90
2023/06/17 05:03:51;;;;;;;19.95;16.33;;;17.30;99.90;;;;;;4997398;28;20496;-90
2023/06/17 05:06:17;;;;;;;19.52;14.57;;;17.30;99.90;;;;;;4989427;28;20038;-89
2023/06/17 05:08:42;;;;;;;24.17;17.30;;;17.30;99.90;;;;;;5030406;28;20097;-90
2023/06/17 05:11:08;;;;;;;23.35;17.48;;;17.30;99.90;;;;;;4987736;28;20049;-89
2023/06/17 05:13:34;;;;;;;22.40;17.02;;;17.30;99.90;;;;;;4987244;28;20029;-90
2023/06/17 05:15:59;;;;;;;25.13;16.73;;;17.30;99.90;;;;;;5037707;28;20029;-91
2023/06/17 05:18:25;;;;;;;21.88;16.67;;;17.30;99.90;;;;;;4987119;28;20125;-90
2023/06/17 05:20:51;;;;;;;17.80;13.98;;;17.30;99.90;;;;;;4999043;28;20097;-90
2023/06/17 05:23:17;;;;;;;25.08;17.27;;;17.30;99.90;;;;;;4993344;28;20094;-90
2023/06/17 05:25:42;;;;;;;24.55;18.58;;;17.30;99.90;;;;;;5003191;28;20110;-90
2023/06/17 05:28:10;;;;;;;19.23;13.68;;;17.40;99.90;;;;;;5002074;28;20050;-90
2023/06/17 05:30:38;;;;;;;19.52;15.55;;;17.40;99.90;;;;;;4983924;28;20073;-91
2023/06/17 05:33:04;;;;;;;20.60;16.15;;;17.40;99.90;;;;;;5021312;28;20046;-90
2023/06/17 05:35:30;;;;;;;15.75;13.07;;;17.40;99.90;;;;;;5001852;28;20390;-90
2023/06/17 05:37:56;;;;;;;21.30;16.13;;;17.50;99.90;;;;;;5016811;28;20049;-89
2023/06/17 05:40:22;;;;;;;20.15;15.05;;;17.50;99.90;;;;;;5026477;28;20040;-90
2023/06/17 05:42:47;;;;;;;17.85;13.52;;;17.60;99.90;;;;;;4995128;28;20042;-90
2023/06/17 05:45:13;;;;;;;22.88;16.83;;;17.60;99.90;;;;;;4993248;28;20077;-90
2023/06/17 05:47:39;;;;;;;17.17;13.23;;;17.50;99.90;;;;;;5022783;28;20067;-90
2023/06/17 05:50:05;;;;;;;19.65;13.77;;;17.60;99.90;;;;;;4984906;28;20403;-90
2023/06/17 05:52:31;;;;;;;18.90;13.90;;;17.50;99.90;;;;;;4990132;28;20069;-89
2023/06/17 05:54:56;;;;;;;17.35;13.05;;;17.60;99.90;;;;;;4986443;28;20437;-90
2023/06/17 05:57:22;;;;;;;25.58;15.45;;;17.50;99.90;;;;;;5002715;28;20161;-91
2023/06/17 05:59:48;;;;;;;21.00;14.60;;;17.50;99.90;;;;;;4998926;28;20050;-91
2023/06/17 06:02:14;;;;;;;17.42;12.02;;;17.50;99.90;;;;;;5032250;28;20076;-90
2023/06/17 06:04:40;;;;;;;17.85;13.50;;;17.60;99.90;;;;;;5022213;28;20037;-90
2023/06/17 06:07:07;;;;;;;17.05;11.90;;;17.60;99.90;;;;;;4986936;28;20050;-90
2023/06/17 06:09:33;;;;;;;18.17;13.57;;;17.60;99.90;;;;;;4989643;28;20042;-90
2023/06/17 06:11:58;;;;;;;18.15;13.25;;;17.60;99.90;;;;;;5004574;28;20040;-90
2023/06/17 06:14:24;;;;;;;19.65;12.98;;;17.70;99.90;;;;;;5006101;28;20574;-91
2023/06/17 06:16:50;;;;;;;20.38;14.80;;;17.60;99.90;;;;;;4998768;28;20045;-91
2023/06/17 06:19:16;;;;;;;19.13;14.48;;;17.70;99.90;;;;;;5011292;28;20542;-88
2023/06/17 06:21:44;;;;;;;15.63;12.38;;;17.70;99.90;;;;;;5010729;28;20821;-88
2023/06/17 06:24:12;;;;;;;16.27;12.23;;;17.70;99.90;;;;;;4998174;28;20070;-88
2023/06/17 06:26:39;;;;;;;15.55;11.32;;;17.70;99.90;;;;;;4991909;28;20041;-89
2023/06/17 06:29:07;;;;;;;21.38;13.65;;;17.70;99.90;;;;;;4995888;28;20042;-89
2023/06/17 06:31:32;;;;;;;20.38;13.80;;;17.70;99.90;;;;;;5009915;28;20124;-88
2023/06/17 06:33:58;;;;;;;19.55;13.70;;;17.70;99.90;;;;;;4994593;28;20133;-89
2023/06/17 06:36:24;;;;;;;19.80;13.45;;;17.80;99.90;;;;;;4995008;28;20038;-89
2023/06/17 06:38:50;;;;;;;20.42;14.18;;;17.80;99.90;;;;;;5022110;28;20085;-88
2023/06/17 06:41:16;;;;;;;18.98;14.60;;;17.80;99.90;;;;;;5022834;28;20072;-89
2023/06/17 06:43:41;;;;;;;19.40;14.85;;;17.80;99.90;;;;;;5007131;28;20037;-89
2023/06/17 06:46:07;;;;;;;19.15;13.60;;;17.80;99.90;;;;;;5001672;28;20039;-89
2023/06/17 06:48:33;;;;;;;18.42;13.98;;;17.80;99.90;;;;;;5000271;28;20345;-89
2023/06/17 06:50:59;;;;;;;24.20;16.25;;;17.80;99.90;;;;;;5002082;28;20091;-89
2023/06/17 06:53:24;;;;;;;23.35;15.95;;;17.80;99.90;;;;;;5025601;28;20042;-89
2023/06/17 06:55:50;;;;;;;18.55;13.65;;;17.80;99.90;;;;;;4999544;28;20041;-88
2023/06/17 06:58:16;;;;;;;21.08;14.95;;;17.80;99.90;;;;;;5024438;28;20050;-90
2023/06/17 07:00:42;;;;;;;20.15;15.65;;;17.80;99.90;;;;;;4989125;28;20045;-95
2023/06/17 07:03:07;;;;;;;20.95;15.75;;;17.90;99.90;;;;;;5033908;28;20046;-96
2023/06/17 07:05:33;;;;;;;20.23;14.70;;;18.00;99.90;;;;;;5030347;28;20037;-95
2023/06/17 07:08:00;;;;;;;19.98;14.23;;;18.00;99.90;;;;;;4997334;28;20073;-96
2023/06/17 07:10:33;;;;;;;23.23;17.17;;;18.10;99.90;;;;;;4978746;28;20053;-95
2023/06/17 07:58:16;;;;;;;17.42;12.70;;;19.30;99.90;;;;;;1394518;26;20065;-91
2023/06/17 08:00:42;;;;;;;16.13;12.65;;;19.40;99.90;;;;;;4978849;28;20049;-92
2023/06/17 08:03:08;;;;;;;16.10;12.80;;;19.50;99.90;;;;;;5009758;28;20050;-92
2023/06/17 08:05:36;;;;;;;19.00;14.13;;;19.60;99.90;;;;;;5010340;28;20445;-92
2023/06/17 08:08:02;;;;;;;19.20;14.20;;;19.70;99.90;;;;;;4994135;28;20097;-92
2023/06/17 08:10:28;;;;;;;22.15;13.90;;;19.90;99.90;;;;;;4995639;28;20043;-91
2023/06/17 08:12:54;;;;;;;17.17;12.10;;;19.90;99.90;;;;;;4990204;28;20412;-91
2023/06/17 08:15:21;;;;;;;16.48;12.77;;;20.00;99.90;;;;;;4991686;28;20046;-94
2023/06/17 08:17:48;;;;;;;17.30;11.70;;;20.10;99.90;;;;;;4994306;28;20038;-93
2023/06/17 08:20:15;;;;;;;17.80;12.50;;;20.30;99.90;;;;;;5002825;28;20065;-94
2023/06/17 08:22:41;;;;;;;18.52;12.15;;;20.40;99.90;;;;;;4989914;28;20031;-93
2023/06/17 08:25:08;;;;;;;18.42;13.85;;;20.50;99.90;;;;;;4981450;28;20096;-93
2023/06/17 08:27:33;;;;;;;16.08;13.00;;;20.50;99.90;;;;;;4996157;28;20070;-96
2023/06/17 08:30:00;;;;;;;18.45;13.77;;;20.60;99.90;;;;;;4981013;28;20038;-94
2023/06/17 08:32:25;;;;;;;19.35;12.88;;;20.70;99.90;;;;;;4985259;28;20038;-93
2023/06/17 08:34:51;;;;;;;17.42;13.13;;;20.90;99.90;;;;;;4974583;28;20045;-94
2023/06/17 08:37:17;;;;;;;19.35;13.82;;;20.90;99.90;;;;;;5012838;28;20089;-95
2023/06/17 08:39:43;;;;;;;15.95;12.15;;;21.00;99.90;;;;;;5001073;28;20098;-94
2023/06/17 08:42:09;;;;;;;18.45;12.75;;;21.10;99.90;;;;;;4987348;28;20069;-94
2023/06/17 08:44:41;;;;;;;17.95;13.40;;;21.20;99.90;;;;;;4978382;28;20038;-95
2023/06/17 08:47:07;;;;;;;18.15;12.25;;;21.30;99.80;;;;;;4993696;28;20078;-95
2023/06/17 08:49:36;;;;;;;20.90;13.88;;;21.40;99.50;;;;;;4976593;28;20038;-96
2023/06/17 08:52:05;;;;;;;20.95;11.63;;;21.50;99.50;;;;;;5007234;28;20049;-94
2023/06/17 08:54:40;;;;;;;14.63;11.05;;;21.50;99.10;;;;;;5010145;28;20086;-87
2023/06/17 08:57:14;;;;;;;16.40;12.07;;;21.60;98.80;;;;;;5012573;28;20242;-86
2023/06/17 08:59:43;;;;;;;14.55;11.52;;;21.70;98.80;;;;;;4998361;28;20058;-88
2023/06/17 09:02:12;;;;;;;16.30;11.88;;;21.80;98.50;;;;;;5008215;28;20053;-88
2023/06/17 09:04:39;;;;;;;17.30;12.60;;;21.90;98.30;;;;;;5013972;28;20524;-87
2023/06/17 09:07:06;;;;;;;16.60;12.13;;;21.90;98.70;;;;;;4989964;28;20050;-87
2023/06/17 09:09:32;;;;;;;14.70;11.55;;;22.00;98.70;;;;;;5010416;28;20045;-87
2023/06/17 09:12:04;;;;;;;15.85;11.48;;;22.00;98.80;;;;;;5005374;28;20493;-87
2023/06/17 09:14:30;;;;;;;17.98;10.90;;;22.00;98.50;;;;;;4984846;28;20078;-87
2023/06/17 09:16:57;;;;;;;15.25;11.57;;;22.10;98.80;;;;;;5003569;28;20038;-86
2023/06/17 09:19:23;;;;;;;17.23;11.65;;;22.10;98.80;;;;;;4989089;28;20050;-87
2023/06/17 09:21:49;;;;;;;17.55;11.18;;;22.20;98.60;;;;;;5009353;28;20080;-88
2023/06/17 09:24:15;;;;;;;15.48;10.40;;;22.30;98.60;;;;;;4995652;28;20034;-88
2023/06/17 09:26:42;;;;;;;12.05;10.18;;;22.40;98.60;;;;;;5015178;28;20556;-87
2023/06/17 09:29:10;;;;;;;14.45;9.70;;;22.40;98.40;;;;;;5005017;28;20117;-85
2023/06/17 09:31:53;;;;;;;13.70;9.90;;;22.50;98.40;;;;;;4983557;28;20046;-87
2023/06/17 09:34:20;;;;;;;13.68;9.73;;;22.60;97.70;;;;;;5021018;28;20036;-89
2023/06/17 09:37:00;;;;;;;15.20;9.07;;;22.70;98.20;;;;;;4991974;28;20052;-89
2023/06/17 09:39:30;;;;;;;14.35;10.20;;;22.80;97.90;;;;;;5003098;28;20117;-89
2023/06/17 09:41:56;;;;;;;12.43;9.30;;;22.90;97.80;;;;;;5004237;28;20030;-89
2023/06/17 09:44:24;;;;;;;16.33;10.18;;;22.90;97.90;;;;;;4995510;28;20066;-90
2023/06/17 09:46:50;;;;;;;14.75;9.52;;;23.00;97.70;;;;;;4992310;28;20073;-89
2023/06/17 09:49:23;;;;;;;14.60;10.07;;;23.10;97.70;;;;;;5003277;28;20081;-89
2023/06/17 09:51:51;;;;;;;14.63;10.20;;;23.10;97.70;;;;;;4999768;28;20107;-89
2023/06/17 09:54:19;;;;;;;14.93;10.77;;;23.20;97.50;;;;;;4998917;28;20073;-90
2023/06/17 09:56:46;;;;;;;14.10;9.93;;;23.30;97.60;;;;;;4982595;28;20039;-89
2023/06/17 09:59:12;;;;;;;12.75;9.35;;;23.30;97.80;;;;;;4994880;28;20053;-89
2023/06/17 10:01:39;;;;;;;13.25;10.35;;;23.30;97.60;;;;;;4989454;28;20069;-90
2023/06/17 10:04:09;;;;;;;11.77;9.27;;;23.40;97.70;;;;;;5009639;28;20046;-90
2023/06/17 10:06:37;;;;;;;16.33;9.63;;;23.50;97.70;;;;;;4974240;28;20050;-89
2023/06/17 10:09:08;;;;;;;12.52;8.30;;;23.60;97.40;;;;;;4994043;28;20531;-89
2023/06/17 10:11:35;;;;;;;12.43;8.90;;;23.70;97.20;;;;;;4978556;28;20053;-89
2023/06/17 10:14:27;;;;;;;10.75;8.35;;;23.90;97.30;;;;;;4990795;28;20049;-90
2023/06/17 10:16:54;;;;;;;12.77;9.27;;;24.00;96.70;;;;;;4995347;28;20038;-89
2023/06/17 10:19:24;;;;;;;15.10;9.10;;;24.10;96.70;;;;;;4988973;28;20041;-88
2023/06/17 10:21:53;;;;;;;14.57;8.63;;;24.20;96.70;;;;;;5003467;28;20038;-89
2023/06/17 10:24:19;;;;;;;13.65;8.70;;;24.30;96.70;;;;;;5003672;28;20061;-89
2023/06/17 10:26:50;;;;;;;13.20;8.77;;;24.50;96.60;;;;;;4976195;28;20050;-89
2023/06/17 10:29:16;;;;;;;14.25;9.55;;;24.50;96.50;;;;;;5009595;28;20042;-89
2023/06/17 10:31:43;;;;;;;12.80;8.50;;;24.60;96.50;;;;;;4994713;28;20042;-89
2023/06/17 10:34:15;;;;;;;12.90;8.02;;;24.60;96.40;;;;;;4987138;28;20070;-89
2023/06/17 10:36:41;;;;;;;12.18;7.40;;;24.70;96.20;;;;;;5002497;28;20042;-89
2023/06/17 10:39:11;;;;;;;15.73;8.82;;;24.70;96.10;;;;;;4989407;28;20042;-90
2023/06/17 10:41:46;;;;;;;11.95;8.30;;;24.90;96.00;;;;;;5010981;28;20038;-90
2023/06/17 10:44:23;;;;;;;14.23;8.23;;;24.90;95.90;;;;;;5007910;28;20066;-89
2023/06/17 10:46:50;;;;;;;11.75;7.68;;;24.90;95.60;;;;;;4988663;28;20072;-89
2023/06/17 10:49:17;;;;;;;15.02;7.63;;;25.00;95.90;;;;;;5006815;28;20519;-89
2023/06/17 10:51:51;;;;;;;12.60;8.25;;;25.10;95.90;;;;;;4989802;28;20108;-89
2023/06/17 10:54:50;;;;;;;12.57;7.70;;;25.20;95.70;;;;;;4996689;28;20037;-89
2023/06/17 10:57:16;;;;;;;12.65;7.90;;;25.30;95.20;;;;;;4977545;28;20125;-90
2023/06/17 10:59:41;;;;;;;12.52;8.02;;;25.30;95.70;;;;;;4989939;28;20082;-90
2023/06/17 11:02:08;;;;;;;11.98;7.43;;;25.50;95.60;;;;;;5008368;28;20041;-90
2023/06/17 11:04:40;;;;;;;14.00;8.10;;;25.60;95.50;;;;;;4988660;28;20110;-89
2023/06/17 11:07:07;;;;;;;12.80;7.80;;;25.70;95.30;;;;;;4984358;28;20379;-89
2023/06/17 11:09:34;;;;;;;12.38;7.32;;;25.70;95.10;;;;;;4992729;28;20336;-90
2023/06/17 11:12:02;;;;;;;11.10;7.68;;;25.80;95.00;;;;;;5013940;28;20041;-90
2023/06/17 11:14:33;;;;;;;10.20;7.55;;;25.90;94.90;;;;;;5002637;28;20093;-90
2023/06/17 11:16:58;;;;;;;17.42;7.72;;;26.00;94.90;;;;;;5008741;28;20046;-89
2023/06/17 11:19:24;;;;;;;9.05;7.05;;;26.10;94.80;;;;;;4993160;28;20034;-89
2023/06/17 11:21:55;;;;;;;10.70;7.18;;;26.10;94.60;;;;;;4981722;28;20073;-89
2023/06/17 11:24:20;;;;;;;10.02;6.78;;;26.20;94.80;;;;;;4989053;28;20049;-89
2023/06/17 11:26:46;;;;;;;9.60;6.80;;;26.30;94.50;;;;;;4997227;28;20042;-89
2023/06/17 11:29:12;;;;;;;10.80;7.40;;;26.40;94.10;;;;;;4995286;28;20122;-89
2023/06/17 11:31:40;;;;;;;11.80;7.07;;;26.40;93.60;;;;;;4983728;28;20085;-90
2023/06/17 11:34:09;;;;;;;9.65;7.15;;;26.60;94.00;;;;;;4988946;28;20535;-89
2023/06/17 11:36:37;;;;;;;12.55;7.50;;;26.70;94.10;;;;;;5003231;28;20038;-90
2023/06/17 11:39:04;;;;;;;10.48;7.18;;;26.70;93.80;;;;;;5001692;28;20042;-89
2023/06/17 11:41:31;;;;;;;9.38;7.07;;;26.90;93.90;;;;;;5001453;28;20115;-90
2023/06/17 11:43:57;;;;;;;13.05;6.72;;;27.00;93.90;;;;;;4989119;28;20068;-90
2023/06/17 11:46:24;;;;;;;9.85;6.75;;;27.10;93.70;;;;;;4993177;28;20030;-89
2023/06/17 11:48:50;;;;;;;13.50;7.07;;;27.20;93.50;;;;;;4990998;28;20061;-90
2023/06/17 11:51:17;;;;;;;12.43;7.55;;;27.20;93.40;;;;;;4990528;28;20049;-90
2023/06/17 11:53:49;;;;;;;11.35;6.90;;;27.30;93.60;;;;;;4986341;28;20081;-88
2023/06/17 11:56:22;;;;;;;11.55;7.03;;;27.30;93.50;;;;;;5001489;28;20042;-89
2023/06/17 11:58:51;;;;;;;9.90;6.70;;;27.40;93.60;;;;;;5010453;28;20470;-90
2023/06/17 12:01:17;;;;;;;9.60;6.72;;;27.50;93.50;;;;;;5002305;28;20077;-90
2023/06/17 12:03:46;;;;;;;9.88;7.05;;;27.60;93.40;;;;;;4981085;28;20152;-88
2023/06/17 12:06:19;;;;;;;10.02;6.90;;;27.50;92.80;;;;;;5002820;28;20101;-88
2023/06/17 12:08:59;;;;;;;12.25;6.80;;;27.80;92.20;;;;;;4987841;28;20408;-88
2023/06/17 12:11:31;;;;;;;8.88;6.30;;;27.80;92.80;;;;;;4978500;28;20057;-89
2023/06/17 12:14:05;;;;;;;9.20;6.40;;;27.90;92.90;;;;;;4988064;28;20034;-90
2023/06/17 12:16:35;;;;;;;11.35;6.65;;;28.00;92.70;;;;;;5003124;28;20054;-89
2023/06/17 12:19:06;;;;;;;13.63;7.07;;;28.10;92.70;;;;;;5011309;28;20105;-88
2023/06/17 12:21:32;;;;;;;12.77;6.40;;;28.10;92.40;;;;;;4980470;28;20035;-89
2023/06/17 12:23:58;;;;;;;10.05;6.53;;;28.10;92.40;;;;;;4998790;28;20045;-89
2023/06/17 12:26:26;;;;;;;9.50;6.47;;;28.20;92.40;;;;;;4996315;28;20068;-89
2023/06/17 12:28:52;;;;;;;10.73;7.10;;;28.30;92.20;;;;;;4993932;28;20225;-89
2023/06/17 12:31:20;;;;;;;10.30;6.57;;;28.40;92.50;;;;;;4994373;28;20085;-89
2023/06/17 12:33:48;;;;;;;11.25;7.38;;;28.40;92.60;;;;;;4998267;28;20066;-89
2023/06/17 12:36:16;;;;;;;9.60;6.20;;;28.50;92.30;;;;;;5009197;28;20034;-89
2023/06/17 12:38:44;;;;;;;8.57;6.68;;;28.60;92.20;;;;;;4987382;28;20045;-89
2023/06/17 12:41:10;;;;;;;9.70;7.10;;;28.60;92.30;;;;;;5008758;28;20042;-88
2023/06/17 12:43:38;;;;;;;11.30;6.22;;;28.70;92.30;;;;;;5007418;28;20353;-89
2023/06/17 12:46:05;;;;;;;10.02;6.20;;;28.80;91.80;;;;;;5003396;28;20050;-89
2023/06/17 12:48:33;;;;;;;8.68;6.43;;;28.80;91.90;;;;;;5010583;28;20092;-89
2023/06/17 12:50:59;;;;;;;9.45;7.28;;;28.90;91.90;;;;;;4980343;28;20111;-89
2023/06/17 12:53:26;;;;;;;12.48;6.72;;;29.00;91.90;;;;;;5004808;28;20050;-89
2023/06/17 12:55:56;;;;;;;10.35;6.93;;;29.00;91.70;;;;;;4987464;28;20077;-89
2023/06/17 12:58:24;;;;;;;10.73;7.45;;;29.10;91.70;;;;;;4989152;28;20078;-89
2023/06/17 13:00:50;;;;;;;10.50;7.32;;;29.10;91.70;;;;;;4977376;28;20058;-89
2023/06/17 13:03:17;;;;;;;9.00;7.10;;;29.20;91.30;;;;;;4988636;28;20057;-89
2023/06/17 13:05:43;;;;;;;11.30;7.28;;;29.20;91.50;;;;;;4996340;28;20041;-89
2023/06/17 13:08:09;;;;;;;8.85;6.40;;;29.20;91.40;;;;;;5004683;28;20077;-89
2023/06/17 13:10:35;;;;;;;9.75;6.63;;;29.20;91.50;;;;;;5008061;28;20547;-89
2023/06/17 13:13:01;;;;;;;10.30;6.95;;;29.40;91.60;;;;;;4986161;28;20045;-88
2023/06/17 13:15:29;;;;;;;11.82;7.25;;;29.40;91.40;;;;;;4996199;28;20054;-89
2023/06/17 13:17:55;;;;;;;9.95;6.55;;;29.50;91.10;;;;;;5012044;28;20046;-89